createdAt,value
2023-01-09T06:57:40.590Z,26.04
2023-01-09T06:59:40.279Z,26.33
2023-01-09T07:52:40.205Z,31.85
2023-01-09T08:16:39.575Z,32.81
2023-01-09T08:17:39.568Z,32.95
2023-01-09T08:18:39.567Z,32.92
2023-01-09T08:20:39.553Z,32.96
2023-01-09T08:21:39.554Z,33.05
2023-01-09T08:23:39.524Z,33.11
2023-01-09T08:25:39.504Z,33.13
2023-01-09T08:26:39.521Z,33.22
2023-01-09T08:27:39.551Z,33.16
2023-01-09T08:28:39.495Z,33.26
2023-01-09T08:29:39.710Z,33.19
2023-01-09T08:30:39.463Z,33.29
2023-01-09T08:31:39.488Z,33.29
2023-01-09T08:32:39.457Z,33.35
2023-01-09T08:33:40.592Z,33.33
2023-01-09T08:35:39.435Z,33.24
2023-01-09T08:36:39.433Z,33.30
2023-01-09T08:37:39.415Z,33.33
2023-01-09T08:38:40.045Z,33.35
2023-01-09T08:40:39.376Z,33.25
2023-01-09T08:41:39.384Z,33.25
2023-01-09T08:42:39.367Z,33.29
2023-01-09T08:43:39.355Z,33.18
2023-01-09T08:45:39.364Z,33.25
2023-01-09T08:46:39.403Z,33.20
2023-01-09T08:47:39.320Z,28.35
2023-01-09T08:48:39.319Z,28.47
2023-01-09T08:49:39.718Z,28.48
2023-01-09T08:50:39.734Z,29.33
2023-01-09T08:51:39.282Z,29.85
2023-01-09T08:52:39.277Z,31.21
2023-01-09T08:53:39.290Z,31.45
2023-01-09T08:54:39.280Z,32.14
2023-01-09T08:55:41.237Z,32.98
2023-01-09T08:56:39.243Z,33.54
2023-01-09T08:57:39.227Z,34.06
2023-01-09T08:58:39.221Z,34.38
2023-01-09T08:59:39.211Z,34.60
2023-01-09T09:00:39.199Z,34.70
2023-01-09T09:01:39.230Z,34.73
2023-01-09T09:02:39.197Z,34.78
2023-01-09T09:03:39.170Z,34.74
2023-01-09T09:04:39.159Z,34.72
2023-01-09T09:05:39.240Z,34.58
2023-01-09T09:07:39.140Z,34.44
2023-01-09T09:08:39.131Z,34.37
2023-01-09T09:09:39.113Z,34.21
2023-01-09T09:10:39.259Z,34.19
2023-01-09T09:11:39.105Z,34.15
2023-01-09T09:12:39.122Z,34.10
2023-01-09T09:13:39.096Z,34.02
2023-01-09T09:14:39.077Z,33.98
2023-01-09T09:15:39.330Z,33.88
2023-01-09T09:16:39.052Z,33.85
2023-01-09T09:17:39.063Z,33.83
2023-01-09T09:18:39.039Z,33.77
2023-01-09T09:19:39.030Z,33.80
2023-01-09T09:20:39.255Z,33.68
2023-01-09T09:21:39.011Z,33.66
2023-01-09T09:22:39.003Z,33.65
2023-01-09T09:23:38.995Z,33.72
2023-01-09T09:24:38.994Z,33.58
2023-01-09T09:25:39.233Z,33.61
2023-01-09T09:26:39.003Z,33.64
2023-01-09T09:27:38.950Z,33.67
2023-01-09T09:28:38.952Z,33.67
2023-01-09T09:29:38.939Z,33.77
2023-01-09T09:30:38.927Z,33.70
2023-01-09T09:31:39.082Z,33.69
2023-01-09T09:32:38.919Z,33.68
2023-01-09T09:33:39.236Z,33.68
2023-01-09T09:34:38.894Z,33.70
2023-01-09T09:35:39.641Z,33.82
2023-01-09T09:36:38.899Z,33.80
2023-01-09T09:37:38.875Z,33.91
2023-01-09T09:38:38.863Z,33.96
2023-01-09T09:39:38.854Z,33.95
2023-01-09T09:40:39.257Z,33.97
2023-01-09T09:41:38.833Z,34.03
2023-01-09T09:42:38.849Z,32.16
2023-01-09T09:43:38.812Z,29.10
2023-01-09T09:44:43.720Z,27.69
2023-01-09T09:45:39.267Z,27.36
2023-01-09T09:46:39.256Z,28.22
2023-01-09T09:47:38.794Z,29.04
2023-01-09T09:48:38.771Z,31.29
2023-01-09T09:49:38.761Z,31.93
2023-01-09T09:50:38.747Z,32.26
2023-01-09T09:51:39.243Z,32.38
2023-01-09T09:52:38.734Z,32.69
2023-01-09T09:53:38.766Z,32.80
2023-01-09T09:54:39.752Z,32.84
2023-01-09T09:55:38.726Z,32.90
2023-01-09T09:56:38.831Z,32.98
2023-01-09T09:57:38.689Z,33.12
2023-01-09T09:58:38.702Z,33.18
2023-01-09T09:59:38.751Z,33.27
2023-01-09T10:00:38.669Z,33.25
2023-01-09T10:01:38.999Z,33.33
2023-01-09T10:02:38.717Z,33.35
2023-01-09T10:03:38.857Z,33.42
2023-01-09T10:04:38.751Z,33.37
2023-01-09T10:05:38.619Z,33.41
2023-01-09T10:06:38.746Z,33.39
2023-01-09T10:07:40.515Z,33.33
2023-01-09T10:08:38.597Z,33.35
2023-01-09T10:09:38.601Z,33.40
2023-01-09T10:10:38.617Z,33.40
2023-01-09T10:11:38.607Z,33.42
2023-01-09T10:12:38.588Z,33.42
2023-01-09T10:13:38.571Z,33.48
2023-01-09T10:14:38.739Z,33.52
2023-01-09T10:15:38.859Z,33.56
2023-01-09T10:16:38.536Z,33.59
2023-01-09T10:17:39.472Z,33.63
2023-01-09T10:19:39.239Z,33.71
2023-01-09T10:20:38.773Z,33.80
2023-01-09T10:21:38.493Z,33.84
2023-01-09T10:22:38.478Z,33.88
2023-01-09T10:23:38.473Z,33.92
2023-01-09T10:24:38.459Z,33.92
2023-01-09T10:25:38.451Z,33.99
2023-01-09T10:26:38.755Z,34.09
2023-01-09T10:27:38.755Z,34.08
2023-01-09T10:28:38.426Z,34.16
2023-01-09T10:29:40.896Z,34.12
2023-01-09T10:30:38.433Z,34.19
2023-01-09T10:31:38.475Z,34.22
2023-01-09T10:32:38.776Z,33.60
2023-01-09T10:33:38.393Z,33.27
2023-01-09T10:34:38.387Z,33.96
2023-01-09T10:35:47.326Z,34.03
2023-01-09T10:36:38.792Z,34.03
2023-01-09T10:37:38.367Z,34.01
2023-01-09T10:38:38.343Z,34.01
2023-01-09T10:40:38.334Z,34.13
2023-01-09T10:41:38.766Z,34.15
2023-01-09T10:42:38.843Z,34.16
2023-01-09T10:43:38.309Z,34.23
2023-01-09T10:44:38.298Z,34.23
2023-01-09T10:45:38.772Z,34.23
2023-01-09T10:46:38.318Z,34.32
2023-01-09T10:47:38.276Z,34.32
2023-01-09T10:48:38.278Z,34.37
2023-01-09T10:49:38.257Z,34.42
2023-01-09T10:50:38.275Z,33.65
2023-01-09T10:51:38.763Z,31.47
2023-01-09T10:52:38.265Z,31.39
2023-01-09T10:53:38.227Z,31.23
2023-01-09T10:54:38.221Z,31.18
2023-01-09T10:55:38.205Z,30.93
2023-01-09T10:56:38.201Z,31.09
2023-01-09T10:57:38.190Z,30.91
2023-01-09T10:58:38.176Z,30.74
2023-01-09T11:00:38.178Z,30.64
2023-01-09T11:01:38.185Z,30.56
2023-01-09T11:02:39.903Z,30.39
2023-01-09T11:03:38.214Z,30.11
2023-01-09T11:04:38.189Z,30.81
2023-01-09T11:05:38.141Z,32.05
2023-01-09T11:06:38.126Z,32.92
2023-01-09T11:07:38.276Z,33.23
2023-01-09T11:08:38.120Z,33.37
2023-01-09T11:09:38.099Z,33.51
2023-01-09T11:10:38.080Z,33.56
2023-01-09T11:11:38.080Z,33.73
2023-01-09T11:12:38.060Z,33.72
2023-01-09T11:13:38.056Z,33.77
2023-01-09T11:14:38.044Z,33.78
2023-01-09T11:15:38.041Z,33.90
2023-01-09T11:16:38.035Z,33.91
2023-01-09T11:17:38.294Z,33.92
2023-01-09T11:18:38.043Z,33.93
2023-01-09T11:19:38.004Z,33.99
2023-01-09T11:20:38.002Z,34.04
2023-01-09T11:21:39.075Z,34.07
2023-01-09T11:22:37.980Z,30.80
2023-01-09T11:23:38.275Z,29.94
2023-01-09T11:24:37.973Z,29.97
2023-01-09T11:25:37.952Z,29.11
2023-01-09T11:26:38.052Z,29.59
2023-01-09T11:27:37.944Z,29.84
2023-01-09T11:28:38.298Z,29.94
2023-01-09T11:29:37.916Z,30.33
2023-01-09T11:31:38.025Z,30.75
2023-01-09T11:32:38.283Z,31.31
2023-01-09T11:33:38.304Z,31.04
2023-01-09T11:34:37.996Z,31.24
2023-01-09T11:35:38.156Z,31.75
2023-01-09T11:36:38.970Z,31.71
2023-01-09T11:37:37.871Z,31.86
2023-01-09T11:38:38.287Z,32.05
2023-01-09T11:39:37.831Z,32.25
2023-01-09T11:40:37.826Z,32.26
2023-01-09T11:41:37.845Z,32.66
2023-01-09T11:42:38.298Z,32.85
2023-01-09T11:43:37.831Z,32.84
2023-01-09T11:44:37.812Z,32.98
2023-01-09T11:45:37.783Z,33.27
2023-01-09T11:46:37.864Z,33.38
2023-01-09T11:47:37.808Z,33.54
2023-01-09T11:48:37.783Z,33.70
2023-01-09T11:49:37.755Z,33.52
2023-01-09T11:50:37.842Z,33.73
2023-01-09T11:51:37.729Z,33.88
2023-01-09T11:52:37.715Z,33.82
2023-01-09T11:53:37.794Z,33.85
2023-01-09T11:54:37.709Z,33.83
2023-01-09T11:55:42.416Z,33.70
2023-01-09T11:56:37.704Z,33.69
2023-01-09T11:57:37.674Z,33.63
2023-01-09T11:58:37.793Z,33.65
2023-01-09T11:59:37.673Z,33.63
2023-01-09T12:00:37.646Z,33.62
2023-01-09T12:01:37.667Z,33.50
2023-01-09T12:02:37.785Z,33.35
2023-01-09T12:03:37.624Z,33.28
2023-01-09T12:06:37.634Z,33.30
2023-01-09T12:07:37.795Z,33.41
2023-01-09T12:10:37.784Z,33.34
2023-01-09T12:13:37.789Z,33.04
2023-01-09T12:18:37.806Z,33.23
2023-01-09T12:23:37.802Z,33.85
2023-01-09T12:27:37.691Z,33.70
2023-01-09T12:28:37.800Z,33.81
2023-01-09T12:29:37.809Z,33.83
2023-01-09T12:33:37.793Z,34.05
2023-01-09T13:03:37.816Z,34.48
2023-01-09T13:23:37.884Z,31.64
2023-01-09T13:54:37.659Z,35.75
2023-01-09T19:54:33.352Z,28.32
2023-01-09T20:20:33.133Z,28.20
2023-01-09T20:21:33.111Z,28.16
